CheckWX is a tool to help pilots better visualize weather data.  It is not intended as a substitute for an official pre-flight weather briefing.

10:48:42 UTC

KMTW TAF
Manitowoc County Airport
Manitowoc, Wisconsin, USA
KMTW 170908Z 1709/1806 00000KT 1/4SM FG OVC002 TEMPO 1709/1713 1 1/2SM BR BKN004 FM171300 VRB03KT 1/2SM FG OVC002 TEMPO 1713/1715 2SM BR BKN004 FM171500 15006KT 4SM BR BKN008 TEMPO 1716/1717 BKN012 FM171700 16010G16KT P6SM SCT200 FM180100 15004KT 5SM BR SCT250 TEMPO 1803/1806 2SM BR SCT004

Sep-17@
09:00 UTC

Sep-17 @ 09:00 UTC

Sep-17@
13:00 UTC

Sep-17 @ 13:00 UTC

KMTW 170908Z 1709/1806 00000KT 1/4SM FG OVC002
Conditions
Fog
Cloud Levels
  • Overcast at 200' AGL

Sep-17@
09:00 UTC

Sep-17 @ 09:00 UTC

Sep-17@
13:00 UTC

Sep-17 @ 13:00 UTC

TEMPO 1709/1713 1 1/2SM BR BKN004

Temporary

Temporary Changes expected for less than half the time period

Conditions
Mist
Cloud Levels
  • Broken at 400' AGL

Sep-17@
13:00 UTC

Sep-17 @ 13:00 UTC

Sep-17@
15:00 UTC

Sep-17 @ 15:00 UTC

FM171300 VRB03KT 1/2SM FG OVC002

From

From Standard forecast or significant change

Wind
  • Variable at 3 KTS
Conditions
Fog
Cloud Levels
  • Overcast at 200' AGL

Sep-17@
13:00 UTC

Sep-17 @ 13:00 UTC

Sep-17@
15:00 UTC

Sep-17 @ 15:00 UTC

TEMPO 1713/1715 2SM BR BKN004

Temporary

Temporary Changes expected for less than half the time period

Conditions
Mist
Cloud Levels
  • Broken at 400' AGL

Sep-17@
15:00 UTC

Sep-17 @ 15:00 UTC

Sep-17@
17:00 UTC

Sep-17 @ 17:00 UTC

FM171500 15006KT 4SM BR BKN008

From

From Standard forecast or significant change

Wind
  • 150° at 6 KTS
Conditions
Mist
Cloud Levels
  • Broken at 800' AGL

Sep-17@
16:00 UTC

Sep-17 @ 16:00 UTC

Sep-17@
17:00 UTC

Sep-17 @ 17:00 UTC

TEMPO 1716/1717 BKN012

Temporary

Temporary Changes expected for less than half the time period

Cloud Levels
  • Broken at 1,200' AGL

Sep-17@
17:00 UTC

Sep-17 @ 17:00 UTC

Sep-18@
01:00 UTC

Sep-18 @ 01:00 UTC

FM171700 16010G16KT P6SM SCT200

From

From Standard forecast or significant change

Wind
  • 160° at 10 KTS
  • {Gusting to 16 KTS
Cloud Levels
  • Scattered at 20,000' AGL

Sep-18@
01:00 UTC

Sep-18 @ 01:00 UTC

Sep-18@
06:00 UTC

Sep-18 @ 06:00 UTC

FM180100 15004KT 5SM BR SCT250

From

From Standard forecast or significant change

Wind
  • 150° at 4 KTS
Conditions
Mist
Cloud Levels
  • Scattered at 25,000' AGL

Sep-18@
03:00 UTC

Sep-18 @ 03:00 UTC

Sep-18@
06:00 UTC

Sep-18 @ 06:00 UTC

TEMPO 1803/1806 2SM BR SCT004

Temporary

Temporary Changes expected for less than half the time period

Conditions
Mist
Cloud Levels
  • Scattered at 400' AGL